createdAt,value
2019-01-20T00:00:25.939Z,-0.8
2019-01-20T00:01:35.052Z,-0.7
2019-01-20T00:02:44.210Z,-0.7
2019-01-20T00:03:53.288Z,-0.8
2019-01-20T00:05:02.448Z,-0.8
2019-01-20T00:06:11.513Z,-0.8
2019-01-20T00:07:20.638Z,-0.7
2019-01-20T00:08:31.417Z,-0.7
2019-01-20T00:09:40.565Z,-0.7
2019-01-20T00:10:49.658Z,-0.6
2019-01-20T00:11:58.764Z,-0.6
2019-01-20T00:13:07.880Z,-0.8
2019-01-20T00:14:16.990Z,-0.6
2019-01-20T00:15:26.160Z,-0.7
2019-01-20T00:16:35.338Z,-0.6
2019-01-20T00:17:44.343Z,-0.5
2019-01-20T00:18:53.475Z,-0.6
2019-01-20T00:20:02.565Z,-0.6
2019-01-20T00:21:11.689Z,-0.6
2019-01-20T00:22:20.807Z,-0.6
2019-01-20T00:23:29.913Z,-0.5
2019-01-20T00:24:39.225Z,-0.6
2019-01-20T00:25:48.187Z,-0.6
2019-01-20T00:26:57.279Z,-0.6
2019-01-20T00:28:06.377Z,-0.5
2019-01-20T00:29:15.582Z,-0.5
2019-01-20T00:30:24.751Z,-0.6
2019-01-20T00:31:33.724Z,-0.5
2019-01-20T00:32:42.906Z,-0.7
2019-01-20T00:33:51.971Z,-0.7
2019-01-20T00:35:01.099Z,-0.7
2019-01-20T00:36:10.193Z,-0.6
2019-01-20T00:37:19.325Z,-0.5
2019-01-20T00:38:28.453Z,-0.6
2019-01-20T00:39:37.570Z,-0.6
2019-01-20T00:40:46.741Z,-0.6
2019-01-20T00:41:55.785Z,-0.6
2019-01-20T00:43:04.906Z,-0.5
2019-01-20T00:44:14.022Z,-0.6
2019-01-20T00:45:23.142Z,-0.6
2019-01-20T00:46:32.336Z,-0.5
2019-01-20T00:47:41.613Z,-0.6
2019-01-20T00:48:50.492Z,-0.6
2019-01-20T00:49:59.622Z,-0.6
2019-01-20T00:51:08.742Z,-0.7
2019-01-20T00:52:17.829Z,-0.7
2019-01-20T00:53:26.947Z,-0.7
2019-01-20T00:54:36.057Z,-0.6
2019-01-20T00:55:45.218Z,-0.6
2019-01-20T00:56:55.030Z,-0.6
2019-01-20T00:58:03.426Z,-0.7
2019-01-20T00:59:12.546Z,-0.6
2019-01-20T01:00:21.658Z,-0.6
2019-01-20T01:01:30.770Z,-0.6
2019-01-20T01:02:39.957Z,-0.8
2019-01-20T01:03:49.035Z,-0.7
2019-01-20T01:04:58.120Z,-0.7
2019-01-20T01:06:07.267Z,-0.8
2019-01-20T01:07:16.493Z,-0.7
2019-01-20T01:08:25.494Z,-0.7
2019-01-20T01:09:34.586Z,-0.6
2019-01-20T01:10:43.751Z,-0.8
2019-01-20T01:11:52.891Z,-0.8
2019-01-20T01:13:01.939Z,-0.8
2019-01-20T01:14:11.058Z,-0.8
2019-01-20T01:15:20.190Z,-0.8
2019-01-20T01:16:29.296Z,-0.9
2019-01-20T01:17:38.466Z,-0.8
2019-01-20T01:18:47.531Z,-0.9
2019-01-20T01:19:56.626Z,-0.9
2019-01-20T01:21:05.751Z,-1
2019-01-20T01:22:14.867Z,-1
2019-01-20T01:23:23.983Z,-0.9
2019-01-20T01:24:33.094Z,-1
2019-01-20T01:25:42.207Z,-1
2019-01-20T01:26:51.365Z,-0.8
2019-01-20T01:28:00.458Z,-0.9
2019-01-20T01:29:09.577Z,-1
2019-01-20T01:30:18.915Z,-0.9
2019-01-20T01:31:27.764Z,-0.9
2019-01-20T01:32:36.889Z,-1
2019-01-20T01:33:46.028Z,-1
2019-01-20T01:34:55.107Z,-1.1
2019-01-20T01:36:04.226Z,-1.1
2019-01-20T01:37:13.327Z,-1
2019-01-20T01:38:22.535Z,-1
2019-01-20T01:39:31.562Z,-1
2019-01-20T01:40:40.659Z,-1
2019-01-20T01:41:49.786Z,-1.1
2019-01-20T01:42:58.936Z,-1.2
2019-01-20T01:44:08.049Z,-1.2
2019-01-20T01:45:17.112Z,-1.2
2019-01-20T01:46:26.226Z,-1.2
2019-01-20T01:47:35.337Z,-1.2
2019-01-20T01:48:44.482Z,-1.2
2019-01-20T01:49:53.554Z,-1.3
2019-01-20T01:51:03.773Z,-1.3
2019-01-20T01:52:12.874Z,-1.2
2019-01-20T01:53:22.031Z,-1.3
2019-01-20T01:54:31.093Z,-1.2
2019-01-20T01:55:40.213Z,-1.3
2019-01-20T01:56:49.313Z,-1.3
2019-01-20T01:57:58.447Z,-1.3
2019-01-20T01:59:07.532Z,-1.3
2019-01-20T02:00:16.689Z,-1.3
2019-01-20T02:01:25.749Z,-1.2
2019-01-20T02:02:34.891Z,-1.3
2019-01-20T02:03:43.970Z,-1.3
2019-01-20T02:04:53.089Z,-1.3
2019-01-20T02:06:02.196Z,-1.3
2019-01-20T02:07:11.314Z,-1.3
2019-01-20T02:08:20.408Z,-1.3
2019-01-20T02:09:29.570Z,-1.3
2019-01-20T02:10:38.626Z,-1.3
2019-01-20T02:11:47.765Z,-1.4
2019-01-20T02:12:56.874Z,-1.6
2019-01-20T02:14:06.010Z,-1.6
2019-01-20T02:15:15.084Z,-1.5
2019-01-20T02:16:24.189Z,-1.4
2019-01-20T02:17:33.338Z,-1.4
2019-01-20T02:18:42.398Z,-1.4
2019-01-20T02:19:51.499Z,-1.5
2019-01-20T02:21:00.623Z,-1.4
2019-01-20T02:22:09.714Z,-1.3
2019-01-20T02:23:18.852Z,-1.3
2019-01-20T02:24:27.959Z,-1.3
2019-01-20T02:25:37.030Z,-1.3
2019-01-20T02:26:46.203Z,-1.4
2019-01-20T02:27:55.249Z,-1.4
2019-01-20T02:29:04.365Z,-1.3
2019-01-20T02:30:13.457Z,-1.3
2019-01-20T02:31:22.554Z,-1.2
2019-01-20T02:32:31.671Z,-1.2
2019-01-20T02:33:40.787Z,-1.4
2019-01-20T02:34:49.934Z,-1.4
2019-01-20T02:35:58.991Z,-1.5
2019-01-20T02:37:08.148Z,-1.5
2019-01-20T02:38:17.211Z,-1.4
2019-01-20T02:39:26.324Z,-1.4
2019-01-20T02:40:35.408Z,-1.5
2019-01-20T02:41:44.520Z,-1.5
2019-01-20T02:42:53.616Z,-1.4
2019-01-20T02:44:02.740Z,-1.4
2019-01-20T02:45:11.826Z,-1.4
2019-01-20T02:46:20.948Z,-1.4
2019-01-20T02:47:30.042Z,-1.4
2019-01-20T02:48:39.140Z,-1.4
2019-01-20T02:49:48.261Z,-1.5
2019-01-20T02:50:57.396Z,-1.5
2019-01-20T02:52:06.459Z,-1.4
2019-01-20T02:53:15.565Z,-1.4
2019-01-20T02:54:24.660Z,-1.5
2019-01-20T02:55:33.789Z,-1.6
2019-01-20T02:56:42.862Z,-1.5
2019-01-20T02:57:51.972Z,-1.5
2019-01-20T02:59:01.083Z,-1.5
2019-01-20T03:00:10.174Z,-1.5
2019-01-20T03:01:19.278Z,-1.5
2019-01-20T03:02:28.377Z,-1.5
2019-01-20T03:03:37.471Z,-1.5
2019-01-20T03:04:46.613Z,-1.6
2019-01-20T03:05:55.681Z,-1.6
2019-01-20T03:07:04.795Z,-1.8
2019-01-20T03:08:13.878Z,-1.6
2019-01-20T03:09:22.976Z,-1.6
2019-01-20T03:10:32.102Z,-1.5
2019-01-20T03:11:41.356Z,-1.6
2019-01-20T03:12:50.285Z,-1.6
2019-01-20T03:13:59.440Z,-1.7
2019-01-20T03:15:08.479Z,-1.7
2019-01-20T03:16:17.625Z,-1.6
2019-01-20T03:17:26.692Z,-1.7
2019-01-20T03:18:35.769Z,-1.7
2019-01-20T03:19:44.879Z,-1.5
2019-01-20T03:20:53.975Z,-1.6
2019-01-20T03:22:03.060Z,-1.7
2019-01-20T03:23:12.171Z,-1.7
2019-01-20T03:24:21.259Z,-1.6
2019-01-20T03:25:30.374Z,-1.7
2019-01-20T03:26:39.507Z,-1.7
2019-01-20T03:27:48.566Z,-1.7
2019-01-20T03:28:57.663Z,-1.6
2019-01-20T03:30:06.762Z,-1.7
2019-01-20T03:31:15.857Z,-1.6
2019-01-20T03:32:24.971Z,-1.7
2019-01-20T03:33:34.112Z,-1.8
2019-01-20T03:34:43.148Z,-1.6
2019-01-20T03:35:52.247Z,-1.6
2019-01-20T03:37:01.397Z,-1.5
2019-01-20T03:38:10.454Z,-1.6
2019-01-20T03:39:19.549Z,-1.7
2019-01-20T03:40:28.644Z,-1.7
2019-01-20T03:41:37.817Z,-1.7
2019-01-20T03:42:46.844Z,-1.7
2019-01-20T03:43:56.091Z,-1.7
2019-01-20T03:45:05.080Z,-1.7
2019-01-20T03:46:14.136Z,-1.7
2019-01-20T03:47:23.358Z,-1.7
2019-01-20T03:48:32.368Z,-1.7
2019-01-20T03:49:41.498Z,-1.7
2019-01-20T03:50:50.574Z,-1.8
2019-01-20T03:51:59.627Z,-1.9
2019-01-20T03:53:08.834Z,-1.8
2019-01-20T03:54:17.945Z,-1.8
2019-01-20T03:55:26.927Z,-1.7
2019-01-20T03:56:36.022Z,-1.8
2019-01-20T03:57:45.213Z,-1.9
2019-01-20T03:58:54.258Z,-1.9
2019-01-20T04:00:03.317Z,-2
2019-01-20T04:01:12.437Z,-1.9
2019-01-20T04:02:21.512Z,-1.9
2019-01-20T04:03:30.597Z,-1.9
2019-01-20T04:04:39.684Z,-1.9
2019-01-20T04:05:48.804Z,-1.9
2019-01-20T04:06:57.874Z,-2
2019-01-20T04:08:06.989Z,-1.9
2019-01-20T04:09:16.074Z,-2.1
2019-01-20T04:10:25.163Z,-2.1
2019-01-20T04:11:34.257Z,-1.8
2019-01-20T04:12:43.353Z,-2
2019-01-20T04:13:52.525Z,-2
2019-01-20T04:15:01.557Z,-1.9
2019-01-20T04:16:10.681Z,-2
2019-01-20T04:17:19.719Z,-2
2019-01-20T04:18:28.817Z,-1.9
2019-01-20T04:19:37.914Z,-2
2019-01-20T04:20:47.043Z,-2
2019-01-20T04:21:56.175Z,-2.2
2019-01-20T04:23:05.182Z,-2.1
2019-01-20T04:24:14.369Z,-2
2019-01-20T04:25:23.427Z,-2
2019-01-20T04:26:32.515Z,-2
2019-01-20T04:27:41.528Z,-2.1
2019-01-20T04:28:50.621Z,-2.1
2019-01-20T04:29:59.713Z,-2.1
2019-01-20T04:31:08.911Z,-2.1
2019-01-20T04:32:17.890Z,-2.2
2019-01-20T04:33:26.979Z,-2.2
2019-01-20T04:34:36.107Z,-2.1
2019-01-20T04:35:45.183Z,-2
2019-01-20T04:36:54.256Z,-2
2019-01-20T04:38:03.477Z,-2
2019-01-20T04:39:12.444Z,-2.1
2019-01-20T04:40:21.511Z,-2.1
2019-01-20T04:41:30.595Z,-2
2019-01-20T04:42:39.745Z,-1.9
2019-01-20T04:43:48.777Z,-2
2019-01-20T04:44:57.879Z,-2
2019-01-20T04:46:06.956Z,-2.2
2019-01-20T04:47:16.059Z,-2.1
2019-01-20T04:48:25.168Z,-2
2019-01-20T04:49:34.235Z,-2
2019-01-20T04:50:43.310Z,-2
2019-01-20T04:51:52.533Z,-2
2019-01-20T04:53:01.510Z,-2.1
2019-01-20T04:54:10.591Z,-2.1
2019-01-20T04:55:19.735Z,-2.1
2019-01-20T04:56:28.771Z,-2.2
2019-01-20T04:57:37.846Z,-2.2
2019-01-20T04:58:46.936Z,-2.2
2019-01-20T04:59:56.035Z,-2.2
2019-01-20T05:01:05.139Z,-2.1
2019-01-20T05:02:14.267Z,-2.2
2019-01-20T05:03:23.295Z,-2.1
2019-01-20T05:04:32.406Z,-2.1
2019-01-20T05:05:41.481Z,-2.1
2019-01-20T05:06:50.598Z,-2.3
2019-01-20T05:07:59.663Z,-2.3
2019-01-20T05:09:08.741Z,-2.2
2019-01-20T05:10:17.834Z,-2.3
2019-01-20T05:11:26.912Z,-2.2
2019-01-20T05:12:37.658Z,-2.2
2019-01-20T05:13:45.158Z,-2.3
2019-01-20T05:14:54.182Z,-2.2
2019-01-20T05:16:03.326Z,-2.3
2019-01-20T05:17:12.367Z,-2.3
2019-01-20T05:18:21.474Z,-2.3
2019-01-20T05:19:30.515Z,-2.4
2019-01-20T05:20:39.614Z,-2.4
2019-01-20T05:21:48.705Z,-2.3
2019-01-20T05:22:57.775Z,-2.3
2019-01-20T05:24:06.965Z,-2.3
2019-01-20T05:25:16.002Z,-2.3
2019-01-20T05:26:25.027Z,-2.4
2019-01-20T05:27:34.119Z,-2.4
2019-01-20T05:28:43.200Z,-2.3
2019-01-20T05:29:52.282Z,-2.3
2019-01-20T05:31:01.452Z,-2.3
2019-01-20T05:32:10.450Z,-2.3
2019-01-20T05:33:19.542Z,-2.4
2019-01-20T05:34:28.621Z,-2.3
2019-01-20T05:35:37.726Z,-2.3
2019-01-20T05:36:46.830Z,-2.3
2019-01-20T05:37:55.873Z,-2.3
2019-01-20T05:39:04.953Z,-2.3
2019-01-20T05:40:14.060Z,-2.3
2019-01-20T05:41:23.177Z,-2.3
2019-01-20T05:42:32.206Z,-2.4
2019-01-20T05:43:41.372Z,-2.5
2019-01-20T05:44:50.385Z,-2.4
2019-01-20T05:45:59.460Z,-2.4
2019-01-20T05:47:08.561Z,-2.5
2019-01-20T05:48:17.635Z,-2.5
2019-01-20T05:49:26.738Z,-2.5
2019-01-20T05:50:35.811Z,-2.5
2019-01-20T05:51:44.892Z,-2.4
2019-01-20T05:52:53.978Z,-2.5
2019-01-20T05:54:03.064Z,-2.4
2019-01-20T05:55:12.162Z,-2.4
2019-01-20T05:56:21.239Z,-2.4
2019-01-20T05:57:30.323Z,-2.4
2019-01-20T05:58:39.411Z,-2.4
2019-01-20T05:59:48.573Z,-2.5
2019-01-20T06:00:57.581Z,-2.4
2019-01-20T06:02:06.686Z,-2.4
2019-01-20T06:03:15.738Z,-2.5
2019-01-20T06:04:24.841Z,-2.5
2019-01-20T06:05:33.915Z,-2.4
2019-01-20T06:06:43.000Z,-2.4
2019-01-20T06:07:52.096Z,-2.5
2019-01-20T06:09:01.224Z,-2.5
2019-01-20T06:10:10.255Z,-2.6
2019-01-20T06:11:19.348Z,-2.5
2019-01-20T06:12:28.418Z,-2.5
2019-01-20T06:13:37.519Z,-2.6
2019-01-20T06:14:46.574Z,-2.6
2019-01-20T06:15:55.681Z,-2.6
2019-01-20T06:17:04.739Z,-2.5
2019-01-20T06:18:13.816Z,-2.5
2019-01-20T06:19:22.913Z,-2.6
2019-01-20T06:20:32.174Z,-2.7
2019-01-20T06:21:41.071Z,-2.5
2019-01-20T06:22:50.166Z,-2.6
2019-01-20T06:23:59.223Z,-2.7
2019-01-20T06:25:08.313Z,-2.5
2019-01-20T06:26:17.423Z,-2.5
2019-01-20T06:27:26.471Z,-2.4
2019-01-20T06:28:35.583Z,-2.5
2019-01-20T06:29:44.626Z,-2.5
2019-01-20T06:30:53.713Z,-2.6
2019-01-20T06:32:02.794Z,-2.6
2019-01-20T06:33:11.878Z,-2.7
2019-01-20T06:34:21.006Z,-2.5
2019-01-20T06:35:30.087Z,-2.6
2019-01-20T06:36:39.131Z,-2.6
2019-01-20T06:37:48.215Z,-2.6
2019-01-20T06:38:57.303Z,-2.7
2019-01-20T06:40:06.427Z,-2.7
2019-01-20T06:41:15.521Z,-2.6
2019-01-20T06:42:24.528Z,-2.6
2019-01-20T06:43:33.630Z,-2.6
2019-01-20T06:44:42.690Z,-2.6
2019-01-20T06:45:51.808Z,-2.6
2019-01-20T06:47:01.136Z,-2.7
2019-01-20T06:48:09.918Z,-2.6
2019-01-20T06:49:19.105Z,-2.7
2019-01-20T06:50:28.092Z,-2.7
2019-01-20T06:51:37.194Z,-2.8
2019-01-20T06:52:46.293Z,-2.7
2019-01-20T06:53:55.318Z,-2.8
2019-01-20T06:55:04.417Z,-2.8
2019-01-20T06:56:13.481Z,-2.8
2019-01-20T06:57:22.576Z,-2.9
2019-01-20T06:58:31.647Z,-2.9
2019-01-20T06:59:40.781Z,-2.8
2019-01-20T07:00:49.793Z,-2.8
2019-01-20T07:01:58.925Z,-2.7
2019-01-20T07:03:07.957Z,-2.7
2019-01-20T07:04:17.008Z,-2.7
2019-01-20T07:05:26.113Z,-2.7
2019-01-20T07:06:35.172Z,-2.6
2019-01-20T07:07:44.229Z,-2.6
2019-01-20T07:08:53.357Z,-2.6
2019-01-20T07:10:02.439Z,-2.6
2019-01-20T07:11:11.464Z,-2.6
2019-01-20T07:12:20.534Z,-2.6
2019-01-20T07:13:29.608Z,-2.6
2019-01-20T07:14:38.704Z,-2.6
2019-01-20T07:15:47.762Z,-2.6
2019-01-20T07:16:56.888Z,-2.7
2019-01-20T07:18:05.911Z,-2.7
2019-01-20T07:19:14.997Z,-2.7
2019-01-20T07:20:24.077Z,-2.7
2019-01-20T07:21:33.201Z,-2.7
2019-01-20T07:22:42.244Z,-2.7
2019-01-20T07:23:51.313Z,-2.7
2019-01-20T07:25:00.448Z,-2.6
2019-01-20T07:26:09.498Z,-2.6
2019-01-20T07:27:18.538Z,-2.6
2019-01-20T07:28:27.622Z,-2.6
2019-01-20T07:29:36.732Z,-2.5
2019-01-20T07:30:45.868Z,-2.7
2019-01-20T07:31:54.849Z,-2.6
2019-01-20T07:33:04.028Z,-2.6
2019-01-20T07:34:13.029Z,-2.6
2019-01-20T07:35:22.115Z,-2.6
2019-01-20T07:36:31.248Z,-2.5
2019-01-20T07:37:40.251Z,-2.5
2019-01-20T07:38:49.328Z,-2.6
2019-01-20T07:39:58.409Z,-2.6
2019-01-20T07:41:07.495Z,-2.5
2019-01-20T07:42:16.572Z,-2.5
2019-01-20T07:43:25.654Z,-2.6
2019-01-20T07:44:34.736Z,-2.5
2019-01-20T07:45:43.826Z,-2.4
2019-01-20T07:46:52.932Z,-2.4
2019-01-20T07:48:01.998Z,-2.4
2019-01-20T07:49:11.079Z,-2.4
2019-01-20T07:50:20.152Z,-2.4
2019-01-20T07:51:29.240Z,-2.3
2019-01-20T07:52:38.318Z,-2.3
2019-01-20T07:53:47.442Z,-2.2
2019-01-20T07:54:56.510Z,-2.3
2019-01-20T07:56:05.622Z,-2.1
2019-01-20T07:57:14.715Z,-1.9
2019-01-20T07:58:23.828Z,-1.9
2019-01-20T07:59:32.829Z,-2
2019-01-20T08:00:42.027Z,-1.9
2019-01-20T08:01:51.022Z,-1.9
2019-01-20T08:03:00.106Z,-2
2019-01-20T08:04:09.174Z,-2
2019-01-20T08:05:18.263Z,-2
2019-01-20T08:06:27.352Z,-2
2019-01-20T08:07:36.436Z,-1.9
2019-01-20T08:08:45.554Z,-1.8
2019-01-20T08:09:54.615Z,-1.7
2019-01-20T08:11:03.703Z,-1.6
2019-01-20T08:12:12.834Z,-1.7
2019-01-20T08:13:24.312Z,-1.6
2019-01-20T08:14:30.984Z,-1.8
2019-01-20T08:15:40.100Z,-1.6
2019-01-20T08:16:49.157Z,-1.4
2019-01-20T08:17:58.416Z,-1.4
2019-01-20T08:19:07.338Z,-1.4
2019-01-20T08:20:16.499Z,-1.4
2019-01-20T08:21:25.550Z,-1.5
2019-01-20T08:22:34.617Z,-1.3
2019-01-20T08:23:43.727Z,-1
2019-01-20T08:24:52.854Z,-0.8
2019-01-20T08:26:01.922Z,-0.5
2019-01-20T08:27:11.022Z,-0.6
2019-01-20T08:28:20.227Z,-0.4
2019-01-20T08:29:29.221Z,-0.2
2019-01-20T08:30:38.354Z,-0.3
2019-01-20T08:31:47.459Z,-0.1
2019-01-20T08:32:56.532Z,-0.1
2019-01-20T08:35:14.732Z,0.1
2019-01-20T08:36:23.876Z,0.1
2019-01-20T08:37:34.261Z,0.1
2019-01-20T08:38:42.074Z,0.1
2019-01-20T08:39:51.191Z,0.1
2019-01-20T08:41:00.473Z,0.1
2019-01-20T08:42:09.432Z,0.2
2019-01-20T08:43:18.521Z,0.2
2019-01-20T08:44:27.625Z,-0.2
2019-01-20T08:45:36.747Z,0.3
2019-01-20T08:46:45.870Z,-0.4
2019-01-20T08:47:55.026Z,-0.9
2019-01-20T08:49:04.098Z,-0.5
2019-01-20T08:50:13.211Z,0.1
2019-01-20T08:51:22.398Z,-0.6
2019-01-20T08:52:31.525Z,-0.9
2019-01-20T08:53:40.617Z,-0.5
2019-01-20T08:54:49.703Z,-1
2019-01-20T08:55:59.108Z,-1.3
2019-01-20T08:57:07.942Z,-1.3
2019-01-20T08:58:17.060Z,-1.1
2019-01-20T08:59:26.221Z,-1
2019-01-20T09:00:35.299Z,-0.5
2019-01-20T09:02:53.534Z,-0.2
2019-01-20T09:04:02.663Z,0.2
2019-01-20T09:05:11.850Z,0.2
2019-01-20T09:06:20.904Z,0.7
2019-01-20T09:07:30.145Z,0.5
2019-01-20T09:08:39.163Z,0.7
2019-01-20T09:09:48.281Z,0.6
2019-01-20T09:10:57.406Z,0.8
2019-01-20T09:12:06.606Z,1
2019-01-20T09:14:24.812Z,0.6
2019-01-20T09:15:33.938Z,0.8
2019-01-20T09:16:43.063Z,0.3
2019-01-20T09:17:52.205Z,0.9
2019-01-20T09:19:01.412Z,0.5
2019-01-20T09:20:10.480Z,0.1
2019-01-20T09:21:19.673Z,-0.2
2019-01-20T09:22:28.747Z,-0.4
2019-01-20T09:23:37.885Z,-0.3
2019-01-20T09:24:47.071Z,-0.2
2019-01-20T09:25:56.200Z,-0.2
2019-01-20T09:27:05.308Z,0.5
2019-01-20T09:28:14.463Z,0.4
2019-01-20T09:29:23.582Z,0.3
2019-01-20T09:30:32.739Z,0.3
2019-01-20T09:31:41.873Z,-0.4
2019-01-20T09:32:50.998Z,-0.5
2019-01-20T09:34:00.260Z,-0.7
2019-01-20T09:35:09.303Z,-0.6
2019-01-20T09:36:18.540Z,-0.8
2019-01-20T09:37:27.578Z,-0.5
2019-01-20T09:38:36.841Z,-0.4
2019-01-20T09:39:45.839Z,0.6
2019-01-20T09:40:54.963Z,0.3
2019-01-20T09:42:04.134Z,0.3
2019-01-20T09:43:13.239Z,0.3
2019-01-20T09:45:31.523Z,0.1
2019-01-20T09:46:40.662Z,0.5
2019-01-20T09:47:49.800Z,0.4
2019-01-20T09:48:58.942Z,0.8
2019-01-20T09:50:08.091Z,0.5
2019-01-20T09:51:17.295Z,1.1
2019-01-20T09:52:26.382Z,0.8
2019-01-20T09:53:35.606Z,1
2019-01-20T09:54:44.678Z,0.9
2019-01-20T09:55:54.966Z,1.4
2019-01-20T09:57:04.078Z,1.9
2019-01-20T09:58:13.255Z,2.3
2019-01-20T09:59:22.419Z,2.6
2019-01-20T10:00:31.590Z,2.7
2019-01-20T10:01:40.682Z,2.4
2019-01-20T10:02:49.841Z,3
2019-01-20T10:03:58.997Z,2.5
2019-01-20T10:05:08.155Z,2.4
2019-01-20T10:06:17.368Z,2.7
2019-01-20T10:07:26.485Z,2.6
2019-01-20T10:08:35.668Z,2.6
2019-01-20T10:09:44.819Z,2.3
2019-01-20T10:10:54.003Z,2.6
2019-01-20T10:12:03.264Z,2.1
2019-01-20T10:13:13.960Z,1.4
2019-01-20T10:14:23.132Z,2.1
2019-01-20T10:15:32.351Z,2
2019-01-20T10:16:41.651Z,2
2019-01-20T10:17:50.791Z,2.1
2019-01-20T10:18:59.826Z,2.4
2019-01-20T10:20:09.061Z,1.2
2019-01-20T10:21:18.185Z,1.8
2019-01-20T10:22:28.264Z,1.4
2019-01-20T10:23:36.675Z,2
2019-01-20T10:24:45.711Z,2.5
2019-01-20T10:25:54.908Z,1.6
2019-01-20T10:27:04.065Z,1.6
2019-01-20T10:28:13.245Z,2.2
2019-01-20T10:29:22.448Z,1.7
2019-01-20T10:30:31.670Z,2
2019-01-20T10:31:40.804Z,2.5
2019-01-20T10:32:49.974Z,2.3
2019-01-20T10:33:59.158Z,0.8
2019-01-20T10:35:08.314Z,0.7
2019-01-20T10:36:17.576Z,0.8
2019-01-20T10:37:26.667Z,0.7
2019-01-20T10:38:37.337Z,1.5
2019-01-20T10:39:45.044Z,1.5
2019-01-20T10:40:54.217Z,1.5
2019-01-20T10:42:03.450Z,1.9
2019-01-20T10:43:12.561Z,2.1
2019-01-20T10:44:21.750Z,1.6
2019-01-20T10:45:30.927Z,2.1
2019-01-20T10:46:40.110Z,2.3
2019-01-20T10:47:49.304Z,2.6
2019-01-20T10:48:58.470Z,2.3
2019-01-20T10:50:07.727Z,3
2019-01-20T10:51:16.837Z,2.9
2019-01-20T10:52:26.044Z,3.1
2019-01-20T10:53:35.199Z,3.1
2019-01-20T10:54:44.393Z,3
2019-01-20T10:55:53.595Z,3
2019-01-20T10:57:02.791Z,3.5
2019-01-20T10:58:11.990Z,3.8
2019-01-20T10:59:21.210Z,4.2
2019-01-20T11:00:30.357Z,4.4
2019-01-20T11:01:39.582Z,2.5
2019-01-20T11:02:48.749Z,2.4
2019-01-20T11:03:57.951Z,2.7
2019-01-20T11:05:07.173Z,3.1
2019-01-20T11:06:16.561Z,2.4
2019-01-20T11:07:25.551Z,2
2019-01-20T11:08:34.783Z,2
2019-01-20T11:09:43.955Z,2.1
2019-01-20T11:10:53.159Z,1.7
2019-01-20T11:12:02.383Z,2
2019-01-20T11:13:11.545Z,2.3
2019-01-20T11:14:20.789Z,3.2
2019-01-20T11:15:29.936Z,3.5
2019-01-20T11:16:39.142Z,4.2
2019-01-20T11:17:48.578Z,4.7
2019-01-20T11:18:57.533Z,4.8
2019-01-20T11:20:06.752Z,4.2
2019-01-20T11:21:15.961Z,3.8
2019-01-20T11:22:25.157Z,2.9
2019-01-20T11:23:34.441Z,3.1
2019-01-20T11:24:43.600Z,2.5
2019-01-20T11:25:52.792Z,2.2
2019-01-20T11:27:02.004Z,2.2
2019-01-20T11:28:11.259Z,3
2019-01-20T11:29:20.450Z,3.9
2019-01-20T11:30:29.656Z,4
2019-01-20T11:31:38.863Z,2.9
2019-01-20T11:32:48.119Z,2.8
2019-01-20T11:33:57.295Z,1.9
2019-01-20T11:35:06.523Z,1.8
2019-01-20T11:36:15.823Z,1.6
2019-01-20T11:37:24.936Z,1.5
2019-01-20T11:38:34.146Z,2
2019-01-20T11:39:43.368Z,2.2
2019-01-20T11:40:52.620Z,1.6
2019-01-20T11:42:01.772Z,2
2019-01-20T11:43:11.017Z,1.7
2019-01-20T11:44:20.166Z,1.9
2019-01-20T11:45:29.390Z,2.7
2019-01-20T11:46:38.578Z,3.4
2019-01-20T11:47:47.799Z,3.3
2019-01-20T11:48:57.000Z,3.7
2019-01-20T11:50:06.205Z,4.1
2019-01-20T11:51:15.405Z,4.1
2019-01-20T11:52:24.615Z,3.9
2019-01-20T11:53:33.916Z,3.7
2019-01-20T11:54:43.055Z,4.3
2019-01-20T11:55:53.439Z,3.4
2019-01-20T11:57:01.496Z,3.1
2019-01-20T11:58:10.697Z,3.2
2019-01-20T11:59:19.923Z,4.1
2019-01-20T12:00:29.391Z,4.8
2019-01-20T12:01:38.431Z,4.1
2019-01-20T12:02:47.657Z,3.9
2019-01-20T12:03:56.841Z,3.6
2019-01-20T12:05:06.048Z,3.5
2019-01-20T12:06:15.285Z,3.1
2019-01-20T12:07:24.506Z,3.9
2019-01-20T12:08:33.721Z,4
2019-01-20T12:09:42.962Z,4.6
2019-01-20T12:10:52.176Z,5.1
2019-01-20T12:12:01.411Z,5.4
2019-01-20T12:13:10.637Z,5.5
2019-01-20T12:14:23.920Z,5.9
2019-01-20T12:15:29.112Z,5.8
2019-01-20T12:16:38.346Z,5.6
2019-01-20T12:17:47.610Z,3.5
2019-01-20T12:18:56.826Z,3.6
2019-01-20T12:20:06.167Z,3.9
2019-01-20T12:21:15.393Z,4.3
2019-01-20T12:22:24.556Z,4.4
2019-01-20T12:23:33.880Z,4.6
2019-01-20T12:24:43.025Z,4.3
2019-01-20T12:25:52.308Z,4.4
2019-01-20T12:27:01.508Z,4.3
2019-01-20T12:28:10.748Z,4.5
2019-01-20T12:29:20.029Z,4.4
2019-01-20T12:30:29.237Z,4.7
2019-01-20T12:31:38.506Z,4.8
2019-01-20T12:32:47.786Z,5.2
2019-01-20T12:33:56.960Z,5.1
2019-01-20T12:35:06.214Z,4.6
2019-01-20T12:36:15.467Z,3.9
2019-01-20T12:37:24.705Z,4.2
2019-01-20T12:38:34.002Z,4.1
2019-01-20T12:39:43.226Z,3.7
2019-01-20T12:40:52.445Z,4.1
2019-01-20T12:42:01.677Z,4.6
2019-01-20T12:43:10.925Z,4.5
2019-01-20T12:44:20.159Z,4.8
2019-01-20T12:45:29.404Z,4.8
2019-01-20T12:46:38.680Z,4.3
2019-01-20T12:47:47.900Z,4.1
2019-01-20T12:48:57.185Z,3.5
2019-01-20T12:50:06.425Z,3.7
2019-01-20T12:51:15.666Z,3.6
2019-01-20T12:52:24.884Z,3.8
2019-01-20T12:53:34.176Z,3.9
2019-01-20T12:54:43.374Z,3.4
2019-01-20T12:55:52.599Z,3.7
2019-01-20T12:57:01.858Z,3.3
2019-01-20T12:58:11.078Z,3.2
2019-01-20T12:59:20.316Z,3.5
2019-01-20T13:00:29.593Z,3.7
2019-01-20T13:01:38.794Z,3.8
2019-01-20T13:02:48.033Z,3.9
2019-01-20T13:03:57.278Z,3.6
2019-01-20T13:05:06.545Z,3.5
2019-01-20T13:06:15.724Z,3.6
2019-01-20T13:07:24.955Z,3.9
2019-01-20T13:08:34.334Z,4.2
2019-01-20T13:09:43.427Z,4.1
2019-01-20T13:10:52.658Z,4
2019-01-20T13:12:01.946Z,3.5
2019-01-20T13:13:11.139Z,3.8
2019-01-20T13:14:20.381Z,4
2019-01-20T13:15:29.598Z,3.9
2019-01-20T13:16:38.833Z,4.1
2019-01-20T13:17:48.090Z,3.8
2019-01-20T13:18:57.303Z,3.7
2019-01-20T13:20:06.533Z,3.5
2019-01-20T13:21:15.764Z,3.5
2019-01-20T13:22:25.002Z,3.8
2019-01-20T13:23:34.254Z,3.9
2019-01-20T13:24:43.482Z,4
2019-01-20T13:25:52.704Z,3.7
2019-01-20T13:27:01.976Z,4.1
2019-01-20T13:28:11.203Z,4.2
2019-01-20T13:29:20.449Z,4.1
2019-01-20T13:30:29.656Z,4.1
2019-01-20T13:31:38.882Z,3.3
2019-01-20T13:32:48.125Z,3.7
2019-01-20T13:33:57.350Z,3.9
2019-01-20T13:35:06.559Z,3.6
2019-01-20T13:36:15.819Z,3.1
2019-01-20T13:37:25.046Z,2.5
2019-01-20T13:38:34.287Z,2.6
2019-01-20T13:39:43.486Z,2.8
2019-01-20T13:40:52.872Z,3
2019-01-20T13:42:01.963Z,3
2019-01-20T13:43:11.190Z,3
2019-01-20T13:44:20.381Z,3.2
2019-01-20T13:45:29.616Z,2.4
2019-01-20T13:46:38.853Z,1.9
2019-01-20T13:47:48.760Z,2.2
2019-01-20T13:48:57.260Z,2.2
2019-01-20T13:50:06.522Z,2.4
2019-01-20T13:51:15.699Z,2.1
2019-01-20T13:52:24.917Z,1.9
2019-01-20T13:53:34.112Z,2.1
2019-01-20T13:54:43.371Z,2.1
2019-01-20T13:55:52.629Z,1.9
2019-01-20T13:57:01.754Z,2
2019-01-20T13:58:10.940Z,1.4
2019-01-20T13:59:20.151Z,1.2
2019-01-20T14:00:29.424Z,1.5
2019-01-20T14:01:38.573Z,1.6
2019-01-20T14:02:47.776Z,1.3
2019-01-20T14:03:56.956Z,1.6
2019-01-20T14:05:06.128Z,1.7
2019-01-20T14:06:15.335Z,1.9
2019-01-20T14:07:24.533Z,1.8
2019-01-20T14:08:33.715Z,1.7
2019-01-20T14:09:42.915Z,1.6
2019-01-20T14:10:52.166Z,1.3
2019-01-20T14:12:01.423Z,1.3
2019-01-20T14:13:10.580Z,1.2
2019-01-20T14:14:19.687Z,1.1
2019-01-20T14:15:28.861Z,1
2019-01-20T14:16:38.034Z,1
2019-01-20T14:17:47.367Z,1.2
2019-01-20T14:18:56.415Z,1
2019-01-20T14:20:05.668Z,0.9
2019-01-20T14:21:14.798Z,0.8
2019-01-20T14:22:24.115Z,0.7
2019-01-20T14:23:33.136Z,0.8
2019-01-20T14:24:42.311Z,0.8
2019-01-20T14:25:51.477Z,0.8
2019-01-20T14:27:00.739Z,0.6
2019-01-20T14:28:09.823Z,0.5
2019-01-20T14:29:19.002Z,0.5
2019-01-20T14:30:28.260Z,0.7
2019-01-20T14:31:37.343Z,0.5
2019-01-20T14:32:46.549Z,0.6
2019-01-20T14:33:55.679Z,0.5
2019-01-20T14:35:04.849Z,0.5
2019-01-20T14:36:14.053Z,0.4
2019-01-20T14:37:23.171Z,0.2
2019-01-20T14:38:32.361Z,0.3
2019-01-20T14:39:41.502Z,0.4
2019-01-20T14:40:50.708Z,0.5
2019-01-20T14:41:59.814Z,0.4
2019-01-20T14:43:08.986Z,0.3
2019-01-20T14:44:18.143Z,0.3
2019-01-20T14:45:27.312Z,0.3
2019-01-20T14:46:36.445Z,0.1
2019-01-20T14:47:45.622Z,0.3
2019-01-20T14:48:54.794Z,0.3
2019-01-20T14:50:03.924Z,0.1
2019-01-20T14:52:22.241Z,0.1
2019-01-20T14:53:31.427Z,0.1
2019-01-20T14:54:40.553Z,-0.1
2019-01-20T14:55:49.712Z,-0.1
2019-01-20T14:56:58.830Z,-0.1
2019-01-20T14:58:07.991Z,-0.3
2019-01-20T14:59:17.123Z,-0.3
2019-01-20T15:00:26.268Z,-0.3
2019-01-20T15:01:35.669Z,-0.4
2019-01-20T15:02:44.668Z,-0.3
2019-01-20T15:03:53.723Z,-0.4
2019-01-20T15:05:02.858Z,-0.4
2019-01-20T15:06:12.004Z,-0.5
2019-01-20T15:07:21.160Z,-0.5
2019-01-20T15:08:30.280Z,-0.5
2019-01-20T15:09:39.494Z,-0.4
2019-01-20T15:10:48.568Z,-0.4
2019-01-20T15:11:57.703Z,-0.3
2019-01-20T15:13:06.861Z,-0.4
2019-01-20T15:14:16.162Z,-0.5
2019-01-20T15:15:25.119Z,-0.6
2019-01-20T15:16:34.299Z,-0.7
2019-01-20T15:17:43.395Z,-0.8
2019-01-20T15:18:52.529Z,-0.6
2019-01-20T15:20:01.682Z,-0.6
2019-01-20T15:21:10.809Z,-0.7
2019-01-20T15:22:19.933Z,-0.8
2019-01-20T15:23:29.094Z,-0.8
2019-01-20T15:24:38.222Z,-0.8
2019-01-20T15:25:47.388Z,-0.7
2019-01-20T15:26:56.503Z,-0.8
2019-01-20T15:28:05.621Z,-0.8
2019-01-20T15:29:14.734Z,-0.9
2019-01-20T15:30:23.875Z,-0.8
2019-01-20T15:31:33.029Z,-0.9
2019-01-20T15:32:42.126Z,-0.8
2019-01-20T15:33:51.275Z,-0.8
2019-01-20T15:35:00.388Z,-0.9
2019-01-20T15:36:09.515Z,-0.8
2019-01-20T15:37:18.725Z,-0.9
2019-01-20T15:38:27.765Z,-1
2019-01-20T15:39:36.934Z,-1
2019-01-20T15:40:46.241Z,-1
2019-01-20T15:41:55.165Z,-1
2019-01-20T15:43:04.273Z,-1